sensor_id;sensor_type;location;lat;lon;timestamp;temperature;humidity
26182;DHT22;13927;51.534;11.866;2023-12-20T00:00:36;5.20;99.90
26182;DHT22;13927;51.534;11.866;2023-12-20T00:03:03;5.20;99.90
26182;DHT22;13927;51.534;11.866;2023-12-20T00:05:29;5.20;99.90
26182;DHT22;13927;51.534;11.866;2023-12-20T00:07:57;5.20;99.90
26182;DHT22;13927;51.534;11.866;2023-12-20T00:10:23;5.20;99.90
26182;DHT22;13927;51.534;11.866;2023-12-20T00:12:48;5.20;99.90
26182;DHT22;13927;51.534;11.866;2023-12-20T00:15:14;5.20;99.90
26182;DHT22;13927;51.534;11.866;2023-12-20T00:17:40;5.20;99.90
26182;DHT22;13927;51.534;11.866;2023-12-20T00:20:06;5.20;99.90
26182;DHT22;13927;51.534;11.866;2023-12-20T00:22:32;5.20;99.90
26182;DHT22;13927;51.534;11.866;2023-12-20T00:24:58;5.20;99.90
26182;DHT22;13927;51.534;11.866;2023-12-20T00:27:23;5.20;99.90
26182;DHT22;13927;51.534;11.866;2023-12-20T00:29:49;5.20;99.90
26182;DHT22;13927;51.534;11.866;2023-12-20T00:32:16;5.20;99.90
26182;DHT22;13927;51.534;11.866;2023-12-20T00:34:42;5.20;99.90
26182;DHT22;13927;51.534;11.866;2023-12-20T00:37:08;5.20;99.90
26182;DHT22;13927;51.534;11.866;2023-12-20T00:39:34;5.20;99.90
26182;DHT22;13927;51.534;11.866;2023-12-20T00:41:59;5.20;99.90
26182;DHT22;13927;51.534;11.866;2023-12-20T00:44:25;5.20;99.90
26182;DHT22;13927;51.534;11.866;2023-12-20T00:46:51;5.20;99.90
26182;DHT22;13927;51.534;11.866;2023-12-20T00:49:17;5.30;99.90
26182;DHT22;13927;51.534;11.866;2023-12-20T00:51:43;5.30;99.90
26182;DHT22;13927;51.534;11.866;2023-12-20T00:54:08;5.30;99.90
26182;DHT22;13927;51.534;11.866;2023-12-20T00:56:35;5.30;99.90
26182;DHT22;13927;51.534;11.866;2023-12-20T00:59:00;5.30;99.90
26182;DHT22;13927;51.534;11.866;2023-12-20T01:01:26;5.30;99.90
26182;DHT22;13927;51.534;11.866;2023-12-20T01:03:52;5.30;99.90
26182;DHT22;13927;51.534;11.866;2023-12-20T01:06:18;5.30;99.90
26182;DHT22;13927;51.534;11.866;2023-12-20T01:08:43;5.30;99.90
26182;DHT22;13927;51.534;11.866;2023-12-20T01:11:09;5.30;99.90
26182;DHT22;13927;51.534;11.866;2023-12-20T01:13:35;5.30;99.90
26182;DHT22;13927;51.534;11.866;2023-12-20T01:16:00;5.30;99.90
26182;DHT22;13927;51.534;11.866;2023-12-20T01:18:26;5.30;99.90
26182;DHT22;13927;51.534;11.866;2023-12-20T01:20:52;5.30;99.90
26182;DHT22;13927;51.534;11.866;2023-12-20T01:23:18;5.30;99.90
26182;DHT22;13927;51.534;11.866;2023-12-20T01:25:43;5.30;99.90
26182;DHT22;13927;51.534;11.866;2023-12-20T01:28:09;5.30;99.90
26182;DHT22;13927;51.534;11.866;2023-12-20T01:30:35;5.40;99.90
26182;DHT22;13927;51.534;11.866;2023-12-20T01:33:01;5.40;99.90
26182;DHT22;13927;51.534;11.866;2023-12-20T01:35:26;5.40;99.90
26182;DHT22;13927;51.534;11.866;2023-12-20T01:37:52;5.40;99.90
26182;DHT22;13927;51.534;11.866;2023-12-20T01:40:22;5.30;99.90
26182;DHT22;13927;51.534;11.866;2023-12-20T01:43:07;5.40;99.90
26182;DHT22;13927;51.534;11.866;2023-12-20T01:45:34;5.40;99.90
26182;DHT22;13927;51.534;11.866;2023-12-20T01:48:00;5.40;99.90
26182;DHT22;13927;51.534;11.866;2023-12-20T01:50:28;5.40;99.90
26182;DHT22;13927;51.534;11.866;2023-12-20T01:52:56;5.40;99.90
26182;DHT22;13927;51.534;11.866;2023-12-20T01:55:27;5.40;99.90
26182;DHT22;13927;51.534;11.866;2023-12-20T01:57:56;5.40;99.90
26182;DHT22;13927;51.534;11.866;2023-12-20T02:00:23;5.40;99.90
26182;DHT22;13927;51.534;11.866;2023-12-20T02:02:53;5.40;99.90
26182;DHT22;13927;51.534;11.866;2023-12-20T02:05:20;5.40;99.90
26182;DHT22;13927;51.534;11.866;2023-12-20T02:07:46;5.40;99.90
26182;DHT22;13927;51.534;11.866;2023-12-20T02:10:12;5.40;99.90
26182;DHT22;13927;51.534;11.866;2023-12-20T02:12:38;5.40;99.90
26182;DHT22;13927;51.534;11.866;2023-12-20T02:15:04;5.40;99.90
26182;DHT22;13927;51.534;11.866;2023-12-20T02:17:31;5.40;99.90
26182;DHT22;13927;51.534;11.866;2023-12-20T02:19:57;5.40;99.90
26182;DHT22;13927;51.534;11.866;2023-12-20T02:22:23;5.40;99.90
26182;DHT22;13927;51.534;11.866;2023-12-20T02:24:49;5.50;99.90
26182;DHT22;13927;51.534;11.866;2023-12-20T02:27:15;5.50;99.90
26182;DHT22;13927;51.534;11.866;2023-12-20T02:29:43;5.50;99.90
26182;DHT22;13927;51.534;11.866;2023-12-20T02:32:09;5.50;99.90
26182;DHT22;13927;51.534;11.866;2023-12-20T02:34:34;5.40;99.90
26182;DHT22;13927;51.534;11.866;2023-12-20T02:37:00;5.50;99.90
26182;DHT22;13927;51.534;11.866;2023-12-20T02:39:26;5.50;99.90
26182;DHT22;13927;51.534;11.866;2023-12-20T02:41:51;5.50;99.90
26182;DHT22;13927;51.534;11.866;2023-12-20T02:44:17;5.40;99.90
26182;DHT22;13927;51.534;11.866;2023-12-20T02:46:43;5.50;99.90
26182;DHT22;13927;51.534;11.866;2023-12-20T02:49:08;5.50;99.90
26182;DHT22;13927;51.534;11.866;2023-12-20T02:51:34;5.50;99.90
26182;DHT22;13927;51.534;11.866;2023-12-20T02:54:00;5.50;99.90
26182;DHT22;13927;51.534;11.866;2023-12-20T02:56:26;5.50;99.90
26182;DHT22;13927;51.534;11.866;2023-12-20T02:58:51;5.50;99.90
26182;DHT22;13927;51.534;11.866;2023-12-20T03:01:17;5.50;99.90
26182;DHT22;13927;51.534;11.866;2023-12-20T03:03:42;5.50;99.90
26182;DHT22;13927;51.534;11.866;2023-12-20T03:06:09;5.50;99.90
26182;DHT22;13927;51.534;11.866;2023-12-20T03:08:34;5.50;99.90
26182;DHT22;13927;51.534;11.866;2023-12-20T03:11:00;5.60;99.90
26182;DHT22;13927;51.534;11.866;2023-12-20T03:13:25;5.60;99.90
26182;DHT22;13927;51.534;11.866;2023-12-20T03:15:51;5.60;99.90
26182;DHT22;13927;51.534;11.866;2023-12-20T03:18:17;5.60;99.90
26182;DHT22;13927;51.534;11.866;2023-12-20T03:20:43;5.60;99.90
26182;DHT22;13927;51.534;11.866;2023-12-20T03:23:09;5.60;99.90
26182;DHT22;13927;51.534;11.866;2023-12-20T03:25:35;5.60;99.90
26182;DHT22;13927;51.534;11.866;2023-12-20T03:28:00;5.60;99.90
26182;DHT22;13927;51.534;11.866;2023-12-20T03:30:26;5.60;99.90
26182;DHT22;13927;51.534;11.866;2023-12-20T03:32:52;5.60;99.90
26182;DHT22;13927;51.534;11.866;2023-12-20T03:35:17;5.60;99.90
26182;DHT22;13927;51.534;11.866;2023-12-20T03:37:43;5.60;99.90
26182;DHT22;13927;51.534;11.866;2023-12-20T03:40:09;5.60;99.90
26182;DHT22;13927;51.534;11.866;2023-12-20T03:42:35;5.60;99.90
26182;DHT22;13927;51.534;11.866;2023-12-20T03:45:01;5.60;99.90
26182;DHT22;13927;51.534;11.866;2023-12-20T03:47:26;5.60;99.90
26182;DHT22;13927;51.534;11.866;2023-12-20T03:49:53;5.70;99.90
26182;DHT22;13927;51.534;11.866;2023-12-20T03:52:18;5.70;99.90
26182;DHT22;13927;51.534;11.866;2023-12-20T03:54:44;5.70;99.90
26182;DHT22;13927;51.534;11.866;2023-12-20T03:57:10;5.80;99.90
26182;DHT22;13927;51.534;11.866;2023-12-20T03:59:36;5.70;99.90
26182;DHT22;13927;51.534;11.866;2023-12-20T04:02:03;5.80;99.90
26182;DHT22;13927;51.534;11.866;2023-12-20T04:04:29;5.80;99.90
26182;DHT22;13927;51.534;11.866;2023-12-20T04:06:55;5.80;99.90
26182;DHT22;13927;51.534;11.866;2023-12-20T04:09:21;5.80;99.90
26182;DHT22;13927;51.534;11.866;2023-12-20T04:11:46;5.80;99.90
26182;DHT22;13927;51.534;11.866;2023-12-20T04:14:12;5.80;99.90
26182;DHT22;13927;51.534;11.866;2023-12-20T04:16:38;5.80;99.90
26182;DHT22;13927;51.534;11.866;2023-12-20T04:19:04;5.80;99.90
26182;DHT22;13927;51.534;11.866;2023-12-20T04:21:30;5.80;99.90
26182;DHT22;13927;51.534;11.866;2023-12-20T04:23:56;5.80;99.90
26182;DHT22;13927;51.534;11.866;2023-12-20T04:26:21;5.80;99.90
26182;DHT22;13927;51.534;11.866;2023-12-20T04:28:47;5.80;99.90
26182;DHT22;13927;51.534;11.866;2023-12-20T04:31:13;5.90;99.90
26182;DHT22;13927;51.534;11.866;2023-12-20T04:33:39;5.90;99.90
26182;DHT22;13927;51.534;11.866;2023-12-20T04:36:04;5.90;99.90
26182;DHT22;13927;51.534;11.866;2023-12-20T04:38:30;6.00;99.90
26182;DHT22;13927;51.534;11.866;2023-12-20T04:40:56;6.00;99.90
26182;DHT22;13927;51.534;11.866;2023-12-20T04:43:22;6.00;99.90
26182;DHT22;13927;51.534;11.866;2023-12-20T04:45:47;6.10;99.90
26182;DHT22;13927;51.534;11.866;2023-12-20T04:48:13;6.10;99.90
26182;DHT22;13927;51.534;11.866;2023-12-20T04:50:39;6.20;99.90
26182;DHT22;13927;51.534;11.866;2023-12-20T04:53:05;6.20;99.90
26182;DHT22;13927;51.534;11.866;2023-12-20T04:55:30;6.20;99.90
26182;DHT22;13927;51.534;11.866;2023-12-20T04:57:56;6.20;99.90
26182;DHT22;13927;51.534;11.866;2023-12-20T05:00:22;6.10;99.90
26182;DHT22;13927;51.534;11.866;2023-12-20T05:02:48;6.10;99.90
26182;DHT22;13927;51.534;11.866;2023-12-20T05:05:13;6.10;99.90
26182;DHT22;13927;51.534;11.866;2023-12-20T05:07:40;6.00;99.90
26182;DHT22;13927;51.534;11.866;2023-12-20T05:10:06;6.00;99.90
26182;DHT22;13927;51.534;11.866;2023-12-20T05:12:35;6.00;99.90
26182;DHT22;13927;51.534;11.866;2023-12-20T05:15:01;6.10;99.90
26182;DHT22;13927;51.534;11.866;2023-12-20T05:17:27;6.10;99.90
26182;DHT22;13927;51.534;11.866;2023-12-20T05:19:52;6.00;99.90
26182;DHT22;13927;51.534;11.866;2023-12-20T05:22:21;5.90;99.90
26182;DHT22;13927;51.534;11.866;2023-12-20T05:24:46;5.90;99.90
26182;DHT22;13927;51.534;11.866;2023-12-20T05:27:12;5.80;99.90
26182;DHT22;13927;51.534;11.866;2023-12-20T05:29:38;5.70;99.90
26182;DHT22;13927;51.534;11.866;2023-12-20T05:32:04;5.60;99.90
26182;DHT22;13927;51.534;11.866;2023-12-20T05:34:30;5.60;99.90
26182;DHT22;13927;51.534;11.866;2023-12-20T05:36:57;5.60;99.90
26182;DHT22;13927;51.534;11.866;2023-12-20T05:39:23;5.50;99.90
26182;DHT22;13927;51.534;11.866;2023-12-20T05:41:49;5.50;99.90
26182;DHT22;13927;51.534;11.866;2023-12-20T05:44:15;5.50;99.90
26182;DHT22;13927;51.534;11.866;2023-12-20T05:46:40;5.50;99.90
26182;DHT22;13927;51.534;11.866;2023-12-20T05:49:06;5.60;99.90
26182;DHT22;13927;51.534;11.866;2023-12-20T05:51:32;5.60;99.90
26182;DHT22;13927;51.534;11.866;2023-12-20T05:53:58;5.60;99.90
26182;DHT22;13927;51.534;11.866;2023-12-20T05:56:24;5.50;99.90
26182;DHT22;13927;51.534;11.866;2023-12-20T05:58:50;5.40;99.90
26182;DHT22;13927;51.534;11.866;2023-12-20T06:01:16;5.30;99.90
26182;DHT22;13927;51.534;11.866;2023-12-20T06:03:44;5.30;99.90
26182;DHT22;13927;51.534;11.866;2023-12-20T06:06:11;5.20;99.90
26182;DHT22;13927;51.534;11.866;2023-12-20T06:08:38;5.20;99.90
26182;DHT22;13927;51.534;11.866;2023-12-20T06:11:04;5.20;99.90
26182;DHT22;13927;51.534;11.866;2023-12-20T06:13:31;5.10;99.90
26182;DHT22;13927;51.534;11.866;2023-12-20T06:15:57;5.10;99.90
26182;DHT22;13927;51.534;11.866;2023-12-20T06:18:23;5.00;99.90
26182;DHT22;13927;51.534;11.866;2023-12-20T06:20:49;5.00;99.90
26182;DHT22;13927;51.534;11.866;2023-12-20T06:23:15;4.90;99.90
26182;DHT22;13927;51.534;11.866;2023-12-20T06:25:41;4.90;99.90
26182;DHT22;13927;51.534;11.866;2023-12-20T06:28:06;4.90;99.90
26182;DHT22;13927;51.534;11.866;2023-12-20T06:30:33;4.90;99.90
26182;DHT22;13927;51.534;11.866;2023-12-20T06:32:59;4.90;99.90
26182;DHT22;13927;51.534;11.866;2023-12-20T06:35:25;5.00;99.90
26182;DHT22;13927;51.534;11.866;2023-12-20T06:37:50;5.00;99.90
26182;DHT22;13927;51.534;11.866;2023-12-20T06:40:16;4.90;99.90
26182;DHT22;13927;51.534;11.866;2023-12-20T06:42:42;4.90;99.90
26182;DHT22;13927;51.534;11.866;2023-12-20T06:45:08;4.80;99.90
26182;DHT22;13927;51.534;11.866;2023-12-20T06:47:34;4.80;99.90
26182;DHT22;13927;51.534;11.866;2023-12-20T06:50:00;4.80;99.90
26182;DHT22;13927;51.534;11.866;2023-12-20T06:52:26;4.80;99.90
26182;DHT22;13927;51.534;11.866;2023-12-20T06:54:52;4.70;99.90
26182;DHT22;13927;51.534;11.866;2023-12-20T06:57:18;4.70;99.90
26182;DHT22;13927;51.534;11.866;2023-12-20T06:59:45;4.80;99.90
26182;DHT22;13927;51.534;11.866;2023-12-20T07:02:10;4.80;99.90
26182;DHT22;13927;51.534;11.866;2023-12-20T07:04:40;4.80;99.90
26182;DHT22;13927;51.534;11.866;2023-12-20T07:07:06;4.80;99.90
26182;DHT22;13927;51.534;11.866;2023-12-20T07:09:33;4.90;99.90
26182;DHT22;13927;51.534;11.866;2023-12-20T07:11:59;4.90;99.90
26182;DHT22;13927;51.534;11.866;2023-12-20T07:14:25;4.90;99.90
26182;DHT22;13927;51.534;11.866;2023-12-20T07:16:51;4.90;99.90
26182;DHT22;13927;51.534;11.866;2023-12-20T07:19:17;5.00;99.90
26182;DHT22;13927;51.534;11.866;2023-12-20T07:21:42;5.00;99.90
26182;DHT22;13927;51.534;11.866;2023-12-20T07:24:08;5.10;99.90
26182;DHT22;13927;51.534;11.866;2023-12-20T07:26:34;5.10;99.90
26182;DHT22;13927;51.534;11.866;2023-12-20T07:29:00;5.20;99.90
26182;DHT22;13927;51.534;11.866;2023-12-20T07:31:26;5.20;99.90
26182;DHT22;13927;51.534;11.866;2023-12-20T07:33:52;5.30;99.90
26182;DHT22;13927;51.534;11.866;2023-12-20T07:36:20;5.30;99.90
26182;DHT22;13927;51.534;11.866;2023-12-20T07:38:46;5.40;99.90
26182;DHT22;13927;51.534;11.866;2023-12-20T07:41:12;5.40;99.90
26182;DHT22;13927;51.534;11.866;2023-12-20T07:43:38;5.40;99.90
26182;DHT22;13927;51.534;11.866;2023-12-20T07:46:08;5.40;99.90
26182;DHT22;13927;51.534;11.866;2023-12-20T07:48:36;5.50;99.90
26182;DHT22;13927;51.534;11.866;2023-12-20T07:51:06;5.50;99.90
26182;DHT22;13927;51.534;11.866;2023-12-20T07:53:33;5.50;99.90
26182;DHT22;13927;51.534;11.866;2023-12-20T07:56:00;5.50;99.90
26182;DHT22;13927;51.534;11.866;2023-12-20T07:58:26;5.50;99.90
26182;DHT22;13927;51.534;11.866;2023-12-20T08:00:51;5.50;99.90
26182;DHT22;13927;51.534;11.866;2023-12-20T08:03:17;5.50;99.90
26182;DHT22;13927;51.534;11.866;2023-12-20T08:05:43;5.40;99.90
26182;DHT22;13927;51.534;11.866;2023-12-20T08:08:08;5.40;99.90
26182;DHT22;13927;51.534;11.866;2023-12-20T08:10:35;5.40;99.90
26182;DHT22;13927;51.534;11.866;2023-12-20T08:13:01;5.40;99.90
26182;DHT22;13927;51.534;11.866;2023-12-20T08:15:27;5.40;99.90
26182;DHT22;13927;51.534;11.866;2023-12-20T08:17:52;5.40;99.90
26182;DHT22;13927;51.534;11.866;2023-12-20T08:20:18;5.40;99.90
26182;DHT22;13927;51.534;11.866;2023-12-20T08:22:44;5.50;99.90
26182;DHT22;13927;51.534;11.866;2023-12-20T08:25:10;5.50;99.90
26182;DHT22;13927;51.534;11.866;2023-12-20T08:27:41;5.50;99.90
26182;DHT22;13927;51.534;11.866;2023-12-20T08:30:10;5.60;99.90
26182;DHT22;13927;51.534;11.866;2023-12-20T08:32:36;5.70;99.90
26182;DHT22;13927;51.534;11.866;2023-12-20T08:35:02;5.90;99.90
26182;DHT22;13927;51.534;11.866;2023-12-20T08:37:29;6.00;99.90
26182;DHT22;13927;51.534;11.866;2023-12-20T08:39:55;6.10;99.90
26182;DHT22;13927;51.534;11.866;2023-12-20T08:42:21;6.10;99.90
26182;DHT22;13927;51.534;11.866;2023-12-20T08:44:47;6.10;99.90
26182;DHT22;13927;51.534;11.866;2023-12-20T08:47:13;6.10;99.90
26182;DHT22;13927;51.534;11.866;2023-12-20T08:49:41;6.20;99.90
26182;DHT22;13927;51.534;11.866;2023-12-20T08:52:07;6.30;99.90
26182;DHT22;13927;51.534;11.866;2023-12-20T08:54:32;6.40;99.90
26182;DHT22;13927;51.534;11.866;2023-12-20T08:56:58;6.50;99.90
26182;DHT22;13927;51.534;11.866;2023-12-20T08:59:24;6.50;99.90
26182;DHT22;13927;51.534;11.866;2023-12-20T09:01:49;6.50;99.90
26182;DHT22;13927;51.534;11.866;2023-12-20T09:04:19;6.40;99.90
26182;DHT22;13927;51.534;11.866;2023-12-20T09:06:46;6.20;99.90
26182;DHT22;13927;51.534;11.866;2023-12-20T09:09:11;6.10;99.90
26182;DHT22;13927;51.534;11.866;2023-12-20T09:11:39;6.00;99.90
26182;DHT22;13927;51.534;11.866;2023-12-20T09:14:05;6.00;99.90
26182;DHT22;13927;51.534;11.866;2023-12-20T09:16:30;6.00;99.90
26182;DHT22;13927;51.534;11.866;2023-12-20T09:18:57;6.10;99.90
26182;DHT22;13927;51.534;11.866;2023-12-20T09:21:23;6.20;99.90
26182;DHT22;13927;51.534;11.866;2023-12-20T09:23:49;6.30;99.90
26182;DHT22;13927;51.534;11.866;2023-12-20T09:26:14;6.30;99.90
26182;DHT22;13927;51.534;11.866;2023-12-20T09:28:40;6.30;99.90
26182;DHT22;13927;51.534;11.866;2023-12-20T09:31:06;6.30;99.90
26182;DHT22;13927;51.534;11.866;2023-12-20T09:33:33;6.30;99.90
26182;DHT22;13927;51.534;11.866;2023-12-20T09:35:59;6.40;99.90
26182;DHT22;13927;51.534;11.866;2023-12-20T09:38:25;6.40;99.90
26182;DHT22;13927;51.534;11.866;2023-12-20T09:40:51;6.40;99.90
26182;DHT22;13927;51.534;11.866;2023-12-20T09:43:19;6.50;99.90
26182;DHT22;13927;51.534;11.866;2023-12-20T09:45:46;6.50;99.90
26182;DHT22;13927;51.534;11.866;2023-12-20T09:48:13;6.40;99.90
26182;DHT22;13927;51.534;11.866;2023-12-20T09:50:41;6.30;99.90
26182;DHT22;13927;51.534;11.866;2023-12-20T09:53:14;6.20;99.90
26182;DHT22;13927;51.534;11.866;2023-12-20T09:55:41;6.20;99.90
26182;DHT22;13927;51.534;11.866;2023-12-20T09:58:08;6.10;99.90
26182;DHT22;13927;51.534;11.866;2023-12-20T10:00:37;6.20;99.90
26182;DHT22;13927;51.534;11.866;2023-12-20T10:03:03;6.30;99.90
26182;DHT22;13927;51.534;11.866;2023-12-20T10:05:32;6.50;99.90
26182;DHT22;13927;51.534;11.866;2023-12-20T10:07:59;6.80;99.90
26182;DHT22;13927;51.534;11.866;2023-12-20T10:10:26;6.90;99.90
26182;DHT22;13927;51.534;11.866;2023-12-20T10:13:05;7.10;99.90
26182;DHT22;13927;51.534;11.866;2023-12-20T10:15:35;7.20;99.90
26182;DHT22;13927;51.534;11.866;2023-12-20T10:18:02;7.30;99.90
26182;DHT22;13927;51.534;11.866;2023-12-20T10:20:29;7.20;99.90
26182;DHT22;13927;51.534;11.866;2023-12-20T10:22:57;7.20;99.90
26182;DHT22;13927;51.534;11.866;2023-12-20T10:25:23;7.30;99.90
26182;DHT22;13927;51.534;11.866;2023-12-20T10:27:49;7.40;99.90
26182;DHT22;13927;51.534;11.866;2023-12-20T10:30:16;7.50;99.90
26182;DHT22;13927;51.534;11.866;2023-12-20T10:32:41;7.50;99.90
26182;DHT22;13927;51.534;11.866;2023-12-20T10:35:08;7.40;99.90
26182;DHT22;13927;51.534;11.866;2023-12-20T10:37:36;7.30;99.90
26182;DHT22;13927;51.534;11.866;2023-12-20T10:40:04;7.30;99.90
26182;DHT22;13927;51.534;11.866;2023-12-20T10:42:31;7.30;99.90
26182;DHT22;13927;51.534;11.866;2023-12-20T10:44:59;7.40;99.90
26182;DHT22;13927;51.534;11.866;2023-12-20T10:47:26;7.70;99.90
26182;DHT22;13927;51.534;11.866;2023-12-20T10:49:54;7.80;99.90
26182;DHT22;13927;51.534;11.866;2023-12-20T10:52:23;7.90;99.90
26182;DHT22;13927;51.534;11.866;2023-12-20T10:54:50;8.10;99.90
26182;DHT22;13927;51.534;11.866;2023-12-20T10:57:18;8.10;99.90
26182;DHT22;13927;51.534;11.866;2023-12-20T10:59:45;8.20;99.90
26182;DHT22;13927;51.534;11.866;2023-12-20T11:02:14;8.20;99.90
26182;DHT22;13927;51.534;11.866;2023-12-20T11:07:23;8.10;99.90
26182;DHT22;13927;51.534;11.866;2023-12-20T11:09:58;8.20;99.90
26182;DHT22;13927;51.534;11.866;2023-12-20T11:12:39;8.20;99.90
26182;DHT22;13927;51.534;11.866;2023-12-20T11:15:11;8.10;99.90
26182;DHT22;13927;51.534;11.866;2023-12-20T11:17:39;7.70;99.90
26182;DHT22;13927;51.534;11.866;2023-12-20T11:20:06;7.40;99.90
26182;DHT22;13927;51.534;11.866;2023-12-20T11:22:34;7.20;99.90
26182;DHT22;13927;51.534;11.866;2023-12-20T11:25:10;7.10;99.90
26182;DHT22;13927;51.534;11.866;2023-12-20T11:28:09;7.20;99.90
26182;DHT22;13927;51.534;11.866;2023-12-20T11:30:56;7.40;99.90
26182;DHT22;13927;51.534;11.866;2023-12-20T11:33:45;7.70;99.90
26182;DHT22;13927;51.534;11.866;2023-12-20T11:36:18;7.80;99.90
26182;DHT22;13927;51.534;11.866;2023-12-20T11:38:58;7.90;99.90
26182;DHT22;13927;51.534;11.866;2023-12-20T11:41:26;7.90;99.90
26182;DHT22;13927;51.534;11.866;2023-12-20T11:43:55;8.00;99.90
26182;DHT22;13927;51.534;11.866;2023-12-20T11:46:22;8.00;99.90
26182;DHT22;13927;51.534;11.866;2023-12-20T11:48:48;8.00;99.90
26182;DHT22;13927;51.534;11.866;2023-12-20T11:51:14;7.90;99.90
26182;DHT22;13927;51.534;11.866;2023-12-20T11:53:40;7.90;99.90
26182;DHT22;13927;51.534;11.866;2023-12-20T11:56:08;7.90;99.90
26182;DHT22;13927;51.534;11.866;2023-12-20T11:58:35;7.90;99.90
26182;DHT22;13927;51.534;11.866;2023-12-20T12:01:01;7.90;99.90
26182;DHT22;13927;51.534;11.866;2023-12-20T12:03:30;7.90;99.90
26182;DHT22;13927;51.534;11.866;2023-12-20T12:05:56;7.90;99.90
26182;DHT22;13927;51.534;11.866;2023-12-20T12:08:21;7.60;99.90
26182;DHT22;13927;51.534;11.866;2023-12-20T12:10:47;7.50;99.90
26182;DHT22;13927;51.534;11.866;2023-12-20T12:13:13;7.20;99.90
26182;DHT22;13927;51.534;11.866;2023-12-20T12:15:42;7.20;99.90
26182;DHT22;13927;51.534;11.866;2023-12-20T12:18:08;7.10;99.90
26182;DHT22;13927;51.534;11.866;2023-12-20T12:20:35;7.10;99.90
26182;DHT22;13927;51.534;11.866;2023-12-20T12:23:03;7.30;99.90
26182;DHT22;13927;51.534;11.866;2023-12-20T12:25:31;7.50;99.90
26182;DHT22;13927;51.534;11.866;2023-12-20T12:27:59;7.70;99.90
26182;DHT22;13927;51.534;11.866;2023-12-20T12:30:25;7.80;99.90
26182;DHT22;13927;51.534;11.866;2023-12-20T12:32:52;7.90;99.90
26182;DHT22;13927;51.534;11.866;2023-12-20T12:35:19;7.90;99.90
26182;DHT22;13927;51.534;11.866;2023-12-20T12:37:46;8.00;99.90
26182;DHT22;13927;51.534;11.866;2023-12-20T12:40:14;8.10;99.90
26182;DHT22;13927;51.534;11.866;2023-12-20T12:42:42;8.10;99.90
26182;DHT22;13927;51.534;11.866;2023-12-20T12:45:09;8.00;99.90
26182;DHT22;13927;51.534;11.866;2023-12-20T12:47:39;8.00;99.90
26182;DHT22;13927;51.534;11.866;2023-12-20T12:50:05;8.10;99.90
26182;DHT22;13927;51.534;11.866;2023-12-20T12:52:31;8.10;99.90
26182;DHT22;13927;51.534;11.866;2023-12-20T12:54:57;8.10;99.90
26182;DHT22;13927;51.534;11.866;2023-12-20T12:57:23;8.10;99.90
26182;DHT22;13927;51.534;11.866;2023-12-20T12:59:49;8.10;99.90
26182;DHT22;13927;51.534;11.866;2023-12-20T13:02:16;8.10;99.90
26182;DHT22;13927;51.534;11.866;2023-12-20T13:04:42;8.00;99.90
26182;DHT22;13927;51.534;11.866;2023-12-20T13:07:09;7.80;99.90
26182;DHT22;13927;51.534;11.866;2023-12-20T13:09:37;7.60;99.90
26182;DHT22;13927;51.534;11.866;2023-12-20T13:12:06;7.50;99.90
26182;DHT22;13927;51.534;11.866;2023-12-20T13:14:33;7.40;99.90
26182;DHT22;13927;51.534;11.866;2023-12-20T13:17:03;7.30;99.90
26182;DHT22;13927;51.534;11.866;2023-12-20T13:19:29;7.40;99.90
26182;DHT22;13927;51.534;11.866;2023-12-20T13:21:56;7.60;99.90
26182;DHT22;13927;51.534;11.866;2023-12-20T13:24:21;7.60;99.90
26182;DHT22;13927;51.534;11.866;2023-12-20T13:26:47;7.50;99.90
26182;DHT22;13927;51.534;11.866;2023-12-20T13:29:13;7.40;99.90
26182;DHT22;13927;51.534;11.866;2023-12-20T13:31:39;7.40;99.90
26182;DHT22;13927;51.534;11.866;2023-12-20T13:34:06;7.40;99.90
26182;DHT22;13927;51.534;11.866;2023-12-20T13:36:32;7.30;99.90
26182;DHT22;13927;51.534;11.866;2023-12-20T13:38:57;7.20;99.90
26182;DHT22;13927;51.534;11.866;2023-12-20T13:41:23;7.20;99.90
26182;DHT22;13927;51.534;11.866;2023-12-20T13:43:49;7.10;99.90
26182;DHT22;13927;51.534;11.866;2023-12-20T13:46:15;7.10;99.90
26182;DHT22;13927;51.534;11.866;2023-12-20T13:48:40;7.10;99.90
26182;DHT22;13927;51.534;11.866;2023-12-20T13:51:06;7.10;99.90
26182;DHT22;13927;51.534;11.866;2023-12-20T13:53:33;7.10;99.90
26182;DHT22;13927;51.534;11.866;2023-12-20T13:55:58;7.00;99.90
26182;DHT22;13927;51.534;11.866;2023-12-20T13:58:25;7.00;99.90
26182;DHT22;13927;51.534;11.866;2023-12-20T14:00:51;7.00;99.90
26182;DHT22;13927;51.534;11.866;2023-12-20T14:03:17;7.00;99.90
26182;DHT22;13927;51.534;11.866;2023-12-20T14:05:43;6.90;99.90
26182;DHT22;13927;51.534;11.866;2023-12-20T14:08:09;6.90;99.90
26182;DHT22;13927;51.534;11.866;2023-12-20T14:10:35;6.80;99.90
26182;DHT22;13927;51.534;11.866;2023-12-20T14:13:01;6.90;99.90
26182;DHT22;13927;51.534;11.866;2023-12-20T14:15:26;6.90;99.90
26182;DHT22;13927;51.534;11.866;2023-12-20T14:17:52;6.90;99.90
26182;DHT22;13927;51.534;11.866;2023-12-20T14:20:18;6.90;99.90
26182;DHT22;13927;51.534;11.866;2023-12-20T14:22:44;6.90;99.90
26182;DHT22;13927;51.534;11.866;2023-12-20T14:25:12;6.80;99.90
26182;DHT22;13927;51.534;11.866;2023-12-20T14:27:39;6.80;99.90
26182;DHT22;13927;51.534;11.866;2023-12-20T14:30:06;6.70;99.90
26182;DHT22;13927;51.534;11.866;2023-12-20T14:32:35;6.70;99.90
26182;DHT22;13927;51.534;11.866;2023-12-20T14:35:05;6.70;99.90
26182;DHT22;13927;51.534;11.866;2023-12-20T14:37:32;6.60;99.90
26182;DHT22;13927;51.534;11.866;2023-12-20T14:39:57;6.60;99.90
26182;DHT22;13927;51.534;11.866;2023-12-20T14:42:23;6.60;99.90
26182;DHT22;13927;51.534;11.866;2023-12-20T14:44:49;6.60;99.90
26182;DHT22;13927;51.534;11.866;2023-12-20T14:47:15;6.60;99.90
26182;DHT22;13927;51.534;11.866;2023-12-20T14:49:41;6.60;99.90
26182;DHT22;13927;51.534;11.866;2023-12-20T14:52:08;6.60;99.90
26182;DHT22;13927;51.534;11.866;2023-12-20T14:54:36;6.50;99.90
26182;DHT22;13927;51.534;11.866;2023-12-20T14:57:02;6.50;99.90
26182;DHT22;13927;51.534;11.866;2023-12-20T14:59:28;6.50;99.90
26182;DHT22;13927;51.534;11.866;2023-12-20T15:01:54;6.50;99.90
26182;DHT22;13927;51.534;11.866;2023-12-20T15:04:20;6.50;99.90
26182;DHT22;13927;51.534;11.866;2023-12-20T15:06:52;6.50;99.90
26182;DHT22;13927;51.534;11.866;2023-12-20T15:09:18;6.40;99.90
26182;DHT22;13927;51.534;11.866;2023-12-20T15:11:43;6.40;99.90
26182;DHT22;13927;51.534;11.866;2023-12-20T15:14:09;6.40;99.90
26182;DHT22;13927;51.534;11.866;2023-12-20T15:16:35;6.40;99.90
26182;DHT22;13927;51.534;11.866;2023-12-20T15:19:01;6.40;99.90
26182;DHT22;13927;51.534;11.866;2023-12-20T15:21:26;6.40;99.90
26182;DHT22;13927;51.534;11.866;2023-12-20T15:23:58;6.40;99.90
26182;DHT22;13927;51.534;11.866;2023-12-20T15:26:34;6.40;99.90
26182;DHT22;13927;51.534;11.866;2023-12-20T15:29:03;6.40;99.90